Time;durP1;ratioP1;P1;durP2;ratioP2;P2;SDS_P1;SDS_P2;PMS_P1;PMS_P2;Temp;Humidity;BMP_temperature;BMP_pressure;BME280_temperature;BME280_humidity;BME280_pressure;Samples;Min_cycle;Max_cycle;Signal;HPM_P1;HPM_P2
2022/11/12 00:04:21;;;;;;;1.00;1.00;;;;;;;4.84;83.58;98108.53;10366633;28;20197;-75
2022/11/12 00:09:40;;;;;;;1.43;1.00;;;;;;;4.75;83.73;98102.09;10366222;28;20229;-75
2022/11/12 00:14:58;;;;;;;2.97;0.80;;;;;;;4.69;84.63;98107.63;10366454;28;20198;-75
2022/11/12 00:20:17;;;;;;;3.00;1.10;;;;;;;4.51;85.82;98121.59;10366812;28;20193;-75
2022/11/12 00:25:36;;;;;;;2.07;1.07;;;;;;;4.41;86.58;98131.63;10366002;28;20185;-75
2022/11/12 00:30:55;;;;;;;1.07;0.97;;;;;;;4.43;86.43;98116.84;10368234;28;20190;-75
2022/11/12 00:36:14;;;;;;;1.73;0.77;;;;;;;4.49;86.14;98116.50;10372883;28;20233;-74
2022/11/12 00:41:33;;;;;;;0.77;0.77;;;;;;;4.44;85.95;98121.94;10374062;28;20212;-75
2022/11/12 00:46:52;;;;;;;1.20;1.10;;;;;;;4.47;85.82;98108.81;10372762;28;20685;-76
2022/11/12 00:52:11;;;;;;;3.30;1.10;;;;;;;4.49;85.14;98095.75;10372805;28;20197;-75
2022/11/12 00:57:29;;;;;;;1.53;0.83;;;;;;;4.44;85.69;98101.19;10372464;28;20185;-75
2022/11/12 01:02:48;;;;;;;0.83;0.83;;;;;;;4.41;85.39;98110.88;10373149;28;20197;-77
2022/11/12 01:08:07;;;;;;;1.60;1.13;;;;;;;4.46;85.34;98095.91;10372162;28;20233;-75
2022/11/12 01:13:26;;;;;;;1.37;1.00;;;;;;;4.52;84.83;98100.75;10372393;28;20193;-75
2022/11/12 01:18:46;;;;;;;1.03;0.80;;;;;;;4.51;84.59;98095.66;10371441;28;20595;-75
2022/11/12 01:24:05;;;;;;;5.60;0.90;;;;;;;4.44;85.00;98093.41;10371828;28;20189;-75
2022/11/12 01:29:25;;;;;;;2.67;0.80;;;;;;;4.57;84.24;98087.53;10370313;28;20316;-75
2022/11/12 01:34:43;;;;;;;0.70;0.70;;;;;;;4.61;83.76;98084.69;10371456;28;20225;-75
2022/11/12 01:40:03;;;;;;;1.50;1.00;;;;;;;4.73;82.86;98066.75;10370853;28;20241;-75
2022/11/12 01:45:22;;;;;;;1.33;1.10;;;;;;;4.55;83.57;98079.84;10369421;28;20569;-75
2022/11/12 01:50:40;;;;;;;3.10;0.77;;;;;;;4.57;83.78;98082.34;10370412;28;20225;-76
2022/11/12 01:56:02;;;;;;;0.60;0.60;;;;;;;4.59;83.69;98075.28;10366899;28;20201;-76
2022/11/12 02:01:21;;;;;;;0.70;0.70;;;;;;;4.62;83.38;98075.97;10352066;28;20202;-76
2022/11/12 02:06:42;;;;;;;2.70;1.00;;;;;;;4.52;84.22;98089.53;10370272;28;20216;-75
2022/11/12 02:12:01;;;;;;;3.13;0.70;;;;;;;4.66;83.46;98065.44;10355784;28;20201;-75
2022/11/12 02:17:20;;;;;;;0.90;0.80;;;;;;;4.70;82.72;98061.72;10369294;28;20272;-75
2022/11/12 02:22:39;;;;;;;1.03;0.90;;;;;;;4.85;81.44;98060.03;10370077;28;20202;-75
2022/11/12 02:27:59;;;;;;;0.60;0.60;;;;;;;4.77;81.96;98060.47;10367642;28;20690;-75
2022/11/12 02:33:18;;;;;;;2.93;0.97;;;;;;;4.68;82.74;98069.59;10368004;28;20201;-75
2022/11/12 02:38:37;;;;;;;1.03;1.00;;;;;;;4.67;83.14;98061.88;10367408;28;20319;-75
2022/11/12 02:43:56;;;;;;;2.23;0.90;;;;;;;4.67;83.34;98067.09;10367054;28;20201;-75
2022/11/12 02:49:15;;;;;;;0.80;0.80;;;;;;;4.61;83.58;98063.91;10367247;28;20708;-75
2022/11/12 02:54:34;;;;;;;2.17;0.93;;;;;;;4.52;84.13;98076.56;10367796;28;20193;-75
2022/11/12 02:59:53;;;;;;;1.03;0.93;;;;;;;4.49;84.71;98087.97;10367898;28;20189;-75
2022/11/12 03:05:12;;;;;;;1.43;0.73;;;;;;;4.46;84.49;98090.72;10368010;28;20201;-75
2022/11/12 03:10:31;;;;;;;0.90;0.90;;;;;;;4.39;84.90;98094.56;10366172;28;20241;-75
2022/11/12 03:15:57;;;;;;;1.10;0.97;;;;;;;4.36;85.41;98098.16;10367102;28;20197;-75
2022/11/12 03:21:16;;;;;;;0.93;0.80;;;;;;;4.37;85.16;98086.03;10368032;28;20193;-75
2022/11/12 03:26:35;;;;;;;1.00;0.90;;;;;;;4.27;86.25;98099.50;10366557;28;20228;-75
2022/11/12 03:31:54;;;;;;;0.80;0.80;;;;;;;4.27;86.13;98093.47;10367135;28;20501;-75
2022/11/12 03:37:13;;;;;;;1.30;1.00;;;;;;;4.20;86.44;98108.53;10367054;28;20316;-75
2022/11/12 03:42:32;;;;;;;1.43;0.80;;;;;;;4.19;86.70;98106.00;10367007;28;20185;-75
2022/11/12 03:47:53;;;;;;;2.73;0.83;;;;;;;4.31;85.98;98097.56;10366994;28;20642;-75
2022/11/12 03:53:12;;;;;;;2.73;0.97;;;;;;;4.32;85.20;98091.47;10366921;28;20213;-75
2022/11/12 03:58:31;;;;;;;3.43;0.93;;;;;;;4.27;85.34;98090.88;10366572;28;20189;-75
2022/11/12 04:03:50;;;;;;;1.93;1.00;;;;;;;4.15;85.86;98102.75;10379471;28;20279;-76
2022/11/12 04:09:08;;;;;;;0.90;0.90;;;;;;;4.12;86.30;98097.75;10406438;28;20220;-75
2022/11/12 04:14:27;;;;;;;1.23;0.90;;;;;;;4.11;86.64;98090.88;10407958;28;20567;-75
2022/11/12 04:31:02;;;;;;;4.40;0.83;;;;;;;4.09;85.67;98087.53;10406756;28;20737;-75
2022/11/12 04:36:21;;;;;;;0.80;0.80;;;;;;;3.97;86.70;98098.56;10406611;28;20228;-75
2022/11/12 04:47:18;;;;;;;5.60;1.07;;;;;;;3.91;86.94;98099.69;10407106;28;20713;-75
2022/11/12 04:52:37;;;;;;;1.83;0.80;;;;;;;3.89;87.04;98098.91;10406375;28;20681;-75
2022/11/12 04:57:56;;;;;;;1.63;1.00;;;;;;;3.81;87.21;98109.69;10406627;28;20224;-75
2022/11/12 05:03:15;;;;;;;1.87;1.00;;;;;;;3.75;87.40;98113.47;10410401;28;20224;-75
2022/11/12 05:08:34;;;;;;;0.80;0.80;;;;;;;3.86;86.94;98115.50;10424564;28;20216;-75
2022/11/12 05:13:53;;;;;;;1.67;1.20;;;;;;;4.04;84.88;98095.56;10412931;28;20196;-75
2022/11/12 05:19:12;;;;;;;0.83;0.83;;;;;;;3.89;85.61;98106.69;10412329;28;20189;-75
2022/11/12 05:24:36;;;;;;;1.27;1.17;;;;;;;3.71;86.70;98111.94;10412030;28;20684;-75
2022/11/12 05:29:54;;;;;;;2.07;1.43;;;;;;;3.59;87.52;98122.94;10412055;28;20591;-75
2022/11/12 05:35:14;;;;;;;2.00;1.10;;;;;;;3.42;88.45;98134.16;10412449;28;20196;-75
2022/11/12 05:40:32;;;;;;;0.90;0.80;;;;;;;3.35;89.24;98156.06;10412448;28;20645;-75
2022/11/12 05:45:52;;;;;;;3.37;0.83;;;;;;;3.36;89.25;98162.94;10411684;28;20645;-75
2022/11/12 05:51:12;;;;;;;0.70;0.70;;;;;;;3.28;89.77;98154.69;10411733;28;20197;-75
2022/11/12 05:56:31;;;;;;;1.30;1.00;;;;;;;3.37;89.19;98141.31;10411321;28;20184;-75
2022/11/12 06:01:50;;;;;;;1.27;0.80;;;;;;;3.41;88.33;98131.63;10411388;28;20208;-75
2022/11/12 06:07:09;;;;;;;2.50;1.07;;;;;;;3.26;89.40;98154.75;10410847;28;20212;-75
2022/11/12 06:12:28;;;;;;;2.40;1.10;;;;;;;3.35;88.95;98143.97;10410943;28;20195;-75
2022/11/12 06:17:47;;;;;;;4.10;1.10;;;;;;;3.45;87.57;98136.59;10410399;28;20269;-74
2022/11/12 06:23:05;;;;;;;0.90;0.90;;;;;;;3.42;87.87;98149.69;10410594;28;20205;-75
2022/11/12 06:28:25;;;;;;;0.97;0.87;;;;;;;3.38;87.97;98146.41;10409603;28;20236;-75
2022/11/12 06:33:44;;;;;;;3.60;1.00;;;;;;;3.35;87.77;98153.47;10409972;28;20193;-75
2022/11/12 06:39:03;;;;;;;0.90;0.90;;;;;;;3.31;87.94;98151.97;10409369;28;20263;-75
2022/11/12 06:44:22;;;;;;;4.70;2.97;;;;;;;3.20;88.65;98153.34;10409880;28;20201;-75
2022/11/12 06:49:41;;;;;;;20.67;7.13;;;;;;;3.35;87.75;98148.31;10409045;28;20220;-75
2022/11/12 06:55:00;;;;;;;35.97;13.37;;;;;;;3.30;88.16;98161.47;10408970;28;20189;-75
2022/11/12 07:00:19;;;;;;;10.00;4.30;;;;;;;3.37;87.97;98156.84;10409295;28;20231;-75
2022/11/12 07:05:38;;;;;;;3.87;1.60;;;;;;;3.54;87.04;98143.06;10408190;28;20197;-75
2022/11/12 07:10:57;;;;;;;1.90;1.67;;;;;;;3.59;86.95;98148.00;10408801;28;20299;-75
2022/11/12 07:16:17;;;;;;;2.30;1.57;;;;;;;3.72;86.71;98134.34;10408272;28;20205;-75
2022/11/12 07:21:36;;;;;;;1.77;1.37;;;;;;;4.07;85.55;98125.66;10408796;28;20196;-76
2022/11/12 07:26:55;;;;;;;2.83;2.00;;;;;;;4.42;83.88;98113.38;10407757;28;20228;-75
2022/11/12 07:32:14;;;;;;;4.30;2.10;;;;;;;4.70;82.51;98092.88;10408216;28;20196;-75
2022/11/12 07:37:34;;;;;;;2.20;1.57;;;;;;;4.98;81.50;98094.75;10408101;28;20312;-75
2022/11/12 07:42:53;;;;;;;3.90;2.17;;;;;;;5.26;80.41;98086.22;10411466;28;20191;-75
2022/11/12 07:48:12;;;;;;;2.30;1.60;;;;;;;5.31;80.54;98091.13;10418815;28;20235;-76
2022/11/12 07:53:31;;;;;;;5.67;2.50;;;;;;;5.86;78.49;98081.81;10416517;28;20218;-76
2022/11/12 07:58:50;;;;;;;3.93;2.63;;;;;;;5.99;77.74;98059.38;10415118;28;20196;-76
2022/11/12 08:04:10;;;;;;;9.27;1.63;;;;;;;6.58;76.19;98048.75;10424326;28;20200;-77
2022/11/12 08:09:29;;;;;;;6.90;1.30;;;;;;;6.70;75.56;98039.31;10426101;28;20227;-75
2022/11/12 08:14:48;;;;;;;2.87;1.27;;;;;;;6.91;75.27;98054.47;10455794;28;20191;-75
2022/11/12 08:20:08;;;;;;;6.07;2.80;;;;;;;7.15;74.85;98025.94;10384985;28;20204;-76
2022/11/12 08:25:27;;;;;;;4.17;2.40;;;;;;;7.03;73.76;98030.22;10390525;28;20673;-76
2022/11/12 08:30:46;;;;;;;1.90;1.70;;;;;;;7.17;73.74;98031.91;10389278;28;20213;-76
2022/11/12 08:36:08;;;;;;;6.60;3.10;;;;;;;7.70;72.96;98023.97;10398813;28;20736;-77
2022/11/12 08:41:27;;;;;;;6.07;3.10;;;;;;;8.16;71.60;98015.56;10408937;28;20415;-76
2022/11/12 08:46:46;;;;;;;1.93;1.73;;;;;;;8.30;70.88;98003.28;10411491;28;20232;-76
2022/11/12 08:52:05;;;;;;;3.20;2.13;;;;;;;8.90;70.70;98005.00;10433667;28;20196;-76
2022/11/12 08:57:24;;;;;;;4.00;1.90;;;;;;;9.05;70.72;98012.66;10411521;28;20224;-77
2022/11/12 09:02:43;;;;;;;2.47;1.97;;;;;;;9.59;69.81;98001.56;10397377;28;20570;-75
2022/11/12 09:08:08;;;;;;;4.17;2.50;;;;;;;10.69;69.31;98022.63;10410946;28;20228;-76
2022/11/12 09:13:27;;;;;;;3.90;1.90;;;;;;;11.35;67.06;97992.72;10410095;28;20283;-76
2022/11/12 09:18:46;;;;;;;2.15;1.58;;;;;;;11.72;66.13;97989.56;10410455;28;20188;-76
2022/11/12 09:24:06;;;;;;;3.38;1.95;;;;;;;12.16;65.62;97981.47;10409648;28;20200;-76
2022/11/12 09:29:25;;;;;;;3.78;2.50;;;;;;;13.78;61.59;97940.41;10409131;28;20220;-75
2022/11/12 09:34:43;;;;;;;2.30;2.10;;;;;;;14.88;58.40;97906.06;10410948;28;20670;-76
2022/11/12 09:40:04;;;;;;;10.15;9.15;;;;;;;15.78;54.22;97866.91;10409177;28;20240;-76
2022/11/12 09:45:28;;;;;;;4.75;2.92;;;;;;;18.18;47.71;97793.91;10408866;28;20271;-75
2022/11/12 09:51:04;;;;;;;2.97;2.67;;;;;;;16.40;49.20;97805.69;10410202;28;20221;-75
2022/11/12 09:56:24;;;;;;;4.28;2.42;;;;;;;18.54;45.76;97799.41;10393348;28;20204;-75
2022/11/12 10:01:47;;;;;;;5.38;2.30;;;;;;;20.35;42.96;97793.59;10408862;28;20275;-75
2022/11/12 10:07:39;;;;;;;2.08;1.67;;;;;;;21.38;40.48;97769.88;10404133;28;20647;-75
2022/11/12 10:13:16;;;;;;;2.35;1.30;;;;;;;21.86;40.80;97806.34;10398927;28;20200;-77
2022/11/12 10:18:50;;;;;;;3.25;1.55;;;;;;;21.98;42.34;97859.94;10377439;28;20188;-77
2022/11/12 10:24:10;;;;;;;3.67;1.40;;;;;;;22.44;39.36;97800.47;10385653;28;20193;-77
2022/11/12 10:29:37;;;;;;;1.40;1.30;;;;;;;22.75;37.99;97772.28;10384074;28;20201;-77
2022/11/12 10:34:56;;;;;;;2.33;0.90;;;;;;;23.33;32.07;97645.06;10380440;28;20658;-76
2022/11/12 10:40:34;;;;;;;3.08;1.23;;;;;;;24.07;34.86;97755.09;10386585;28;20232;-77
2022/11/12 10:46:12;;;;;;;2.55;1.23;;;;;;;23.39;35.01;97737.78;10386359;28;20593;-77
2022/11/12 10:51:34;;;;;;;1.40;1.30;;;;;;;22.25;36.77;97759.38;10406464;28;20208;-76
2022/11/12 10:56:53;;;;;;;3.75;1.50;;;;;;;22.40;36.89;97767.22;10407012;28;20232;-77
2022/11/12 11:02:17;;;;;;;1.55;1.20;;;;;;;22.30;37.59;97792.63;10407266;28;20656;-77
2022/11/12 11:07:37;;;;;;;1.48;1.25;;;;;;;21.91;39.19;97822.59;10425043;28;20196;-76
2022/11/12 11:13:20;;;;;;;2.47;1.30;;;;;;;21.60;39.92;97836.41;10412981;28;20204;-78
2022/11/12 11:18:41;;;;;;;2.28;1.80;;;;;;;21.53;37.79;97768.91;10407513;28;20621;-76
2022/11/12 11:24:38;;;;;;;5.35;1.48;;;;;;;22.19;36.11;97759.38;10405186;28;20220;-77
2022/11/12 11:30:09;;;;;;;6.93;3.53;;;;;;;23.83;33.15;97727.25;10408617;28;20196;-75
2022/11/12 11:35:40;;;;;;;4.10;1.70;;;;;;;22.80;33.68;97699.53;10393141;28;20661;-75
2022/11/12 11:41:29;;;;;;;2.00;0.93;;;;;;;24.68;29.36;97650.94;10407202;28;20232;-75
2022/11/12 11:47:09;;;;;;;2.05;1.65;;;;;;;24.75;32.94;97748.16;10393015;28;20189;-76
2022/11/12 11:52:38;;;;;;;5.22;1.58;;;;;;;26.17;32.39;97772.97;10392271;28;20224;-75
2022/11/12 11:58:17;;;;;;;2.05;1.30;;;;;;;26.87;30.22;97723.00;10406793;28;20312;-76
2022/11/12 12:03:54;;;;;;;4.90;1.70;;;;;;;26.65;31.95;97753.16;10407040;28;20283;-76
2022/11/12 12:09:29;;;;;;;2.00;1.60;;;;;;;26.16;32.63;97765.97;10406554;28;20668;-75
2022/11/12 12:14:51;;;;;;;1.88;1.27;;;;;;;26.45;32.72;97774.19;10406494;28;20197;-75
2022/11/12 12:20:19;;;;;;;3.30;3.00;;;;;;;25.46;32.17;97721.75;10407400;28;20229;-75
2022/11/12 12:25:39;;;;;;;4.00;2.63;;;;;;;24.86;33.84;97752.75;10391483;28;20559;-75
2022/11/12 12:31:04;;;;;;;2.30;1.30;;;;;;;24.34;34.98;97750.34;10415185;28;20193;-75
2022/11/12 12:36:42;;;;;;;2.78;1.40;;;;;;;23.27;36.30;97760.88;10413969;28;20255;-75
2022/11/12 12:42:14;;;;;;;1.40;1.10;;;;;;;22.99;36.68;97753.97;10414379;28;20204;-75
2022/11/12 12:47:39;;;;;;;2.33;1.50;;;;;;;22.74;37.05;97762.66;10399586;28;20193;-75
2022/11/12 12:53:02;;;;;;;1.52;1.25;;;;;;;22.56;37.30;97757.16;10413798;28;20200;-75
2022/11/12 12:58:40;;;;;;;1.67;1.50;;;;;;;23.15;36.56;97769.56;10414073;28;20740;-76
2022/11/12 13:04:06;;;;;;;3.88;2.72;;;;;;;22.88;37.24;97779.47;10414168;28;20287;-75
2022/11/12 13:09:26;;;;;;;3.10;1.48;;;;;;;22.83;36.97;97759.75;10412843;28;20204;-75
2022/11/12 13:14:51;;;;;;;2.65;2.13;;;;;;;23.88;37.07;97805.06;10413170;28;20197;-75
2022/11/12 13:20:31;;;;;;;2.78;1.70;;;;;;;23.49;36.58;97770.25;10412602;28;20681;-75
2022/11/12 13:25:50;;;;;;;3.83;1.70;;;;;;;24.65;35.80;97804.91;10411971;28;20196;-75
2022/11/12 13:31:27;;;;;;;3.42;1.48;;;;;;;19.40;41.79;97760.91;10413643;28;20192;-75
2022/11/12 13:36:57;;;;;;;2.17;1.58;;;;;;;19.41;44.38;97859.06;10411276;28;20233;-75
2022/11/12 13:47:56;;;;;;;2.03;1.30;;;;;;;20.30;46.31;97921.91;10412994;28;20188;-76
2022/11/12 13:53:27;;;;;;;2.55;1.60;;;;;;;18.99;49.71;97945.53;10413590;28;20660;-75
2022/11/12 13:58:45;;;;;;;1.63;1.27;;;;;;;16.70;54.13;97971.88;10413270;28;20224;-75
2022/11/12 14:04:05;;;;;;;3.63;1.20;;;;;;;17.98;54.25;98005.69;10412800;28;20200;-75
2022/11/12 14:09:39;;;;;;;1.30;1.20;;;;;;;16.85;55.31;97974.69;10396178;28;20693;-75
2022/11/12 14:15:16;;;;;;;1.40;1.30;;;;;;;16.86;52.62;97926.03;10410533;28;20205;-75
2022/11/12 14:20:38;;;;;;;4.85;1.60;;;;;;;15.62;55.59;97944.28;10410287;28;20307;-75
2022/11/12 14:25:56;;;;;;;2.35;1.70;;;;;;;14.14;59.42;97987.94;10382417;28;20228;-75
2022/11/12 14:31:22;;;;;;;2.40;1.80;;;;;;;13.31;61.50;98004.44;10376855;28;20197;-77
2022/11/12 14:36:41;;;;;;;36.58;20.67;;;;;;;12.58;65.58;98032.97;10368405;28;20249;-76
2022/11/12 14:42:00;;;;;;;125.10;61.00;;;;;;;11.47;69.90;98058.22;10354587;28;20193;-76
2022/11/12 14:47:20;;;;;;;144.27;66.20;;;;;;;10.50;75.45;98074.84;10368151;28;20188;-77
2022/11/12 14:52:44;;;;;;;81.80;44.27;;;;;;;10.30;77.73;98051.03;10389992;28;20184;-77
2022/11/12 14:58:04;;;;;;;38.33;27.30;;;;;;;9.87;79.95;98051.78;10393530;28;20216;-76
2022/11/12 15:03:25;;;;;;;7.47;3.47;;;;;;;9.32;81.55;98041.13;10399246;28;20196;-76
2022/11/12 15:08:55;;;;;;;5.70;3.23;;;;;;;9.10;83.04;98040.13;10394100;28;20197;-77
2022/11/12 15:14:23;;;;;;;6.47;3.70;;;;;;;8.92;83.79;98041.47;10408522;28;20193;-77
2022/11/12 15:19:42;;;;;;;4.13;3.00;;;;;;;8.81;83.34;98036.22;10393923;28;21039;-77
2022/11/12 15:25:17;;;;;;;8.20;4.13;;;;;;;8.33;85.81;98050.06;10407838;28;20192;-76
2022/11/12 15:30:36;;;;;;;6.40;3.93;;;;;;;8.00;88.05;98061.94;10393184;28;20614;-77
2022/11/12 15:36:01;;;;;;;9.63;5.50;;;;;;;7.52;90.56;98059.13;10399055;28;20712;-77
2022/11/12 15:41:24;;;;;;;7.73;5.10;;;;;;;7.35;92.35;98061.13;10381469;28;20639;-76
2022/11/12 15:46:43;;;;;;;12.73;5.50;;;;;;;7.09;94.50;98057.63;10378250;28;20634;-75
2022/11/12 15:52:02;;;;;;;8.87;4.40;;;;;;;6.97;94.45;98059.28;10359947;28;20586;-75
2022/11/12 15:57:26;;;;;;;9.17;5.63;;;;;;;6.55;95.90;98051.53;10358379;28;20303;-76
2022/11/12 16:02:47;;;;;;;10.80;5.90;;;;;;;6.24;96.87;98060.47;10361177;28;20193;-76
2022/11/12 16:08:06;;;;;;;9.40;4.90;;;;;;;6.38;96.36;98059.59;10373799;28;20193;-76
2022/11/12 16:13:28;;;;;;;7.43;4.73;;;;;;;6.27;96.04;98051.63;10374427;28;20200;-75
2022/11/12 16:18:46;;;;;;;6.03;4.23;;;;;;;6.10;94.61;98052.69;10371611;28;20217;-76
2022/11/12 16:24:06;;;;;;;7.07;3.63;;;;;;;6.00;94.41;98037.66;10372246;28;20205;-76
2022/11/12 16:29:25;;;;;;;8.00;4.83;;;;;;;5.92;92.73;98032.03;10372685;28;20224;-76
2022/11/12 16:34:44;;;;;;;5.83;3.83;;;;;;;5.53;94.58;98042.16;10374164;28;20221;-76
2022/11/12 16:40:05;;;;;;;4.70;3.00;;;;;;;5.38;94.53;98034.47;10373355;28;20716;-75
2022/11/12 16:45:31;;;;;;;6.47;4.43;;;;;;;5.15;95.32;98040.06;10372281;28;20685;-75
2022/11/12 16:50:50;;;;;;;4.93;2.90;;;;;;;5.19;94.82;98038.13;10373015;28;20302;-75
2022/11/12 16:56:16;;;;;;;3.87;2.67;;;;;;;5.08;93.72;98017.16;10372814;28;20658;-75
2022/11/12 17:01:34;;;;;;;7.83;4.10;;;;;;;4.99;94.69;98016.75;10371945;28;20198;-75
2022/11/12 17:06:53;;;;;;;5.13;4.00;;;;;;;4.95;93.44;98014.44;10372858;28;20304;-75
2022/11/12 17:12:12;;;;;;;8.23;5.03;;;;;;;4.90;91.93;98006.06;10372147;28;20201;-75
2022/11/12 17:17:31;;;;;;;4.73;3.10;;;;;;;4.86;91.09;97991.59;10372872;28;20650;-75
2022/11/12 17:22:50;;;;;;;7.43;4.20;;;;;;;4.71;91.58;98014.09;10371912;28;20201;-75
2022/11/12 17:28:09;;;;;;;6.93;3.80;;;;;;;4.72;90.94;97997.59;10371147;28;20221;-75
2022/11/12 17:33:28;;;;;;;7.20;4.63;;;;;;;4.55;90.83;97996.78;10372233;28;20654;-75
2022/11/12 17:38:47;;;;;;;9.37;5.30;;;;;;;4.47;90.60;97981.66;10370682;28;20225;-76
2022/11/12 17:44:06;;;;;;;7.57;4.33;;;;;;;4.22;92.04;97999.50;10371170;28;20197;-76
2022/11/12 17:49:25;;;;;;;5.63;3.10;;;;;;;4.37;89.88;97969.28;10370575;28;20228;-76
2022/11/12 17:54:44;;;;;;;3.37;2.43;;;;;;;4.30;90.44;97968.78;10370663;28;20193;-75
2022/11/12 18:00:04;;;;;;;3.67;3.00;;;;;;;4.15;89.92;97970.50;10370405;28;20194;-76
2022/11/12 18:05:23;;;;;;;4.90;2.90;;;;;;;4.02;90.09;97972.09;10370675;28;20193;-75
2022/11/12 18:10:44;;;;;;;5.17;2.90;;;;;;;3.83;91.20;97980.00;10369559;28;20225;-75
2022/11/12 18:16:18;;;;;;;8.40;4.87;;;;;;;3.87;89.83;97973.75;10369807;28;20201;-76
2022/11/12 18:21:38;;;;;;;16.33;8.17;;;;;;;3.91;88.29;97965.72;10369580;28;20213;-75
2022/11/12 18:26:57;;;;;;;10.47;5.60;;;;;;;3.84;88.98;97973.91;10369723;28;20228;-76
2022/11/12 18:32:16;;;;;;;13.57;6.50;;;;;;;3.57;89.70;97972.72;10370363;28;20197;-75
2022/11/12 18:37:35;;;;;;;9.23;5.13;;;;;;;3.45;90.79;97975.97;10368389;28;20736;-76
2022/11/12 18:42:54;;;;;;;5.97;2.77;;;;;;;3.69;87.86;97955.69;10373373;28;20201;-76
2022/11/12 18:48:13;;;;;;;3.87;2.60;;;;;;;3.71;86.58;97946.06;10401864;28;20220;-76
2022/11/12 18:53:33;;;;;;;4.77;2.57;;;;;;;3.67;86.75;97948.91;10402344;28;20204;-76
2022/11/12 18:58:52;;;;;;;3.50;2.47;;;;;;;3.56;86.52;97950.31;10386593;28;20806;-76
2022/11/12 19:04:11;;;;;;;3.37;2.20;;;;;;;3.47;86.73;97940.44;10401497;28;20192;-76
2022/11/12 19:09:30;;;;;;;4.20;2.43;;;;;;;3.41;87.08;97943.38;10400756;28;20223;-76
2022/11/12 19:14:48;;;;;;;4.07;2.73;;;;;;;3.25;87.38;97934.72;10401752;28;20192;-76
2022/11/12 19:20:08;;;;;;;3.87;2.23;;;;;;;3.13;88.33;97936.22;10400965;28;20193;-76
2022/11/12 19:25:27;;;;;;;4.23;2.73;;;;;;;3.02;88.64;97945.38;10401218;28;20188;-76
2022/11/12 19:30:46;;;;;;;5.40;2.60;;;;;;;3.08;88.04;97946.81;10400625;28;20225;-76
2022/11/12 19:36:06;;;;;;;4.90;2.50;;;;;;;3.04;87.64;97940.13;10399353;28;20232;-76
2022/11/12 19:41:25;;;;;;;3.00;1.90;;;;;;;3.06;87.39;97946.03;10400400;28;20271;-76
2022/11/12 19:46:44;;;;;;;2.73;1.97;;;;;;;2.83;88.57;97963.59;10400382;28;20193;-76
2022/11/12 19:52:03;;;;;;;3.47;2.43;;;;;;;2.68;89.24;97964.38;10400920;28;20991;-75
2022/11/12 19:57:22;;;;;;;4.67;2.00;;;;;;;2.57;90.62;97972.63;10384952;28;20193;-75
2022/11/12 20:02:41;;;;;;;2.20;1.73;;;;;;;2.55;90.76;97969.28;10400073;28;20204;-75
2022/11/12 20:08:00;;;;;;;2.80;2.07;;;;;;;2.59;91.20;97957.88;10400085;28;20220;-75
2022/11/12 20:13:19;;;;;;;6.47;2.93;;;;;;;2.80;89.10;97935.28;10400298;28;20192;-75
2022/11/12 20:18:38;;;;;;;1.00;0.87;;;;;;;2.98;87.97;97919.72;10400635;28;20185;-75
2022/11/12 20:23:57;;;;;;;1.60;1.40;;;;;;;3.22;86.06;97902.91;10399503;28;20200;-75
2022/11/12 20:29:16;;;;;;;1.93;1.30;;;;;;;3.30;84.85;97902.50;10399586;28;20225;-76
2022/11/12 20:34:35;;;;;;;1.30;1.20;;;;;;;3.31;84.31;97887.81;10400287;28;20196;-76
2022/11/12 20:39:54;;;;;;;2.70;1.30;;;;;;;3.21;85.66;97910.75;10399632;28;20224;-76
2022/11/12 20:45:13;;;;;;;1.73;1.40;;;;;;;3.03;86.68;97913.41;10399258;28;20200;-76
2022/11/12 20:50:32;;;;;;;2.53;1.60;;;;;;;2.78;88.54;97931.09;10404174;28;20688;-75
2022/11/12 20:55:51;;;;;;;3.17;1.60;;;;;;;2.48;90.07;97935.13;10406577;28;20196;-75
2022/11/12 21:01:12;;;;;;;1.47;1.27;;;;;;;2.31;92.27;97942.88;10406755;28;20188;-75
2022/11/12 21:06:31;;;;;;;1.97;1.40;;;;;;;2.26;93.69;97944.84;10406662;28;20200;-75
2022/11/12 21:11:50;;;;;;;5.40;1.37;;;;;;;2.37;93.33;97936.56;10406341;28;20196;-75
2022/11/12 21:17:09;;;;;;;2.87;2.13;;;;;;;2.60;91.32;97917.31;10411036;28;20189;-74
2022/11/12 21:22:28;;;;;;;1.97;1.70;;;;;;;2.71;89.53;97899.53;10410907;28;20668;-75
2022/11/12 21:27:47;;;;;;;1.90;1.30;;;;;;;2.79;88.56;97876.69;10409943;28;20212;-76
2022/11/12 21:33:06;;;;;;;1.77;1.60;;;;;;;2.83;87.96;97869.56;10410553;28;20197;-76
2022/11/12 21:38:26;;;;;;;2.97;1.17;;;;;;;2.72;88.36;97877.91;10412318;28;20232;-75
2022/11/12 21:43:45;;;;;;;4.13;1.53;;;;;;;2.66;88.93;97888.56;10413573;28;20212;-75
2022/11/12 21:49:04;;;;;;;3.60;2.17;;;;;;;2.54;89.84;97895.19;10413313;28;20232;-75
2022/11/12 21:54:23;;;;;;;4.03;1.57;;;;;;;2.50;89.93;97889.34;10413152;28;20196;-75
2022/11/12 21:59:42;;;;;;;2.30;2.10;;;;;;;2.43;90.79;97900.88;10412023;28;20200;-75
2022/11/12 22:11:28;;;;;;;1.33;1.23;;;;;;;2.82;86.59;97862.75;10411728;28;20219;-75
2022/11/12 22:16:47;;;;;;;3.70;1.67;;;;;;;3.03;85.00;97848.69;10405140;28;20676;-75
2022/11/12 22:22:06;;;;;;;1.30;1.10;;;;;;;2.98;84.21;97835.13;10390047;28;20197;-75
2022/11/12 22:27:25;;;;;;;3.87;1.60;;;;;;;2.94;84.22;97840.53;10386487;28;20232;-75
2022/11/12 22:32:44;;;;;;;1.77;1.10;;;;;;;2.98;83.68;97817.00;10372595;28;20662;-75
2022/11/12 22:38:03;;;;;;;1.20;1.10;;;;;;;3.00;83.02;97796.22;10368423;28;20241;-75
2022/11/12 22:43:23;;;;;;;3.93;1.80;;;;;;;2.88;83.43;97807.22;10367619;28;20205;-76
2022/11/12 22:48:42;;;;;;;5.07;1.50;;;;;;;2.87;82.84;97790.06;10368350;28;20228;-76
2022/11/12 22:54:06;;;;;;;0.80;0.80;;;;;;;2.84;82.43;97783.28;10368569;28;20802;-75
2022/11/12 22:59:25;;;;;;;2.23;1.57;;;;;;;2.81;82.21;97780.84;10368386;28;20197;-76
2022/11/12 23:04:44;;;;;;;1.67;1.50;;;;;;;2.78;81.67;97758.56;10368605;28;20189;-75
2022/11/12 23:10:04;;;;;;;0.87;0.87;;;;;;;2.75;81.29;97756.13;10368220;28;20260;-75
2022/11/12 23:15:23;;;;;;;2.13;0.87;;;;;;;2.74;81.53;97753.63;10367070;28;20201;-76
2022/11/12 23:20:42;;;;;;;1.90;0.80;;;;;;;2.74;80.87;97746.72;10367769;28;20691;-75
2022/11/12 23:26:09;;;;;;;0.80;0.80;;;;;;;2.87;79.12;97723.59;10366925;28;20196;-75
2022/11/12 23:31:29;;;;;;;0.87;0.70;;;;;;;2.95;78.56;97720.59;10368075;28;20232;-74
2022/11/12 23:36:48;;;;;;;0.80;0.80;;;;;;;2.80;79.22;97732.59;10367190;28;20240;-77
2022/11/12 23:42:07;;;;;;;0.70;0.70;;;;;;;2.85;78.32;97717.66;10367390;28;20220;-75
2022/11/12 23:47:27;;;;;;;1.90;0.70;;;;;;;2.94;77.71;97698.19;10367274;28;20217;-75
2022/11/12 23:52:45;;;;;;;1.07;0.60;;;;;;;2.85;77.89;97707.31;10367607;28;20197;-76
2022/11/12 23:58:04;;;;;;;0.60;0.60;;;;;;;2.92;76.87;97684.50;10367353;28;20185;-74
